Time;durP1;ratioP1;P1;durP2;ratioP2;P2;SDS_P1;SDS_P2;PMS_P1;PMS_P2;Temp;Humidity;BMP_temperature;BMP_pressure;BME280_temperature;BME280_humidity;BME280_pressure;Samples;Min_cycle;Max_cycle;Signal;HPM_P1;HPM_P2
2022/10/20 00:01:43;;;;;;;11.30;10.23;;;;;;;11.38;100.00;100466.25;5075867;28;20200;-73
2022/10/20 00:04:09;;;;;;;11.57;10.47;;;;;;;11.32;100.00;100466.34;5073536;28;20240;-73
2022/10/20 00:06:34;;;;;;;10.63;9.73;;;;;;;11.28;100.00;100457.72;5073285;28;20235;-75
2022/10/20 00:09:02;;;;;;;9.97;9.00;;;;;;;11.26;100.00;100463.78;5075438;28;20512;-74
2022/10/20 00:11:29;;;;;;;11.50;9.90;;;;;;;11.23;100.00;100458.63;5063641;28;20240;-75
2022/10/20 00:13:55;;;;;;;9.40;8.60;;;;;;;11.22;100.00;100454.31;5072647;28;20193;-75
2022/10/20 00:16:23;;;;;;;10.60;9.60;;;;;;;11.19;100.00;100465.56;5072233;28;20190;-73
2022/10/20 00:18:48;;;;;;;11.47;8.93;;;;;;;11.19;100.00;100470.75;5078235;28;20233;-74
2022/10/20 00:21:16;;;;;;;12.80;9.80;;;;;;;11.18;100.00;100463.84;5102202;28;20208;-74
2022/10/20 00:23:42;;;;;;;11.00;9.80;;;;;;;11.18;100.00;100458.69;5092823;28;20199;-75
2022/10/20 00:26:09;;;;;;;10.53;9.50;;;;;;;11.16;100.00;100457.81;5074160;28;20555;-75
2022/10/20 00:28:34;;;;;;;12.07;9.60;;;;;;;11.14;100.00;100454.38;5074464;28;20354;-74
2022/10/20 00:31:00;;;;;;;10.10;9.13;;;;;;;11.12;100.00;100454.41;5074557;28;20278;-75
2022/10/20 00:33:26;;;;;;;11.37;9.63;;;;;;;11.08;100.00;100444.09;5079749;28;20208;-75
2022/10/20 00:35:51;;;;;;;10.43;9.53;;;;;;;11.06;100.00;100433.72;5067395;28;20246;-75
2022/10/20 00:38:16;;;;;;;10.30;9.50;;;;;;;11.04;100.00;100432.03;5074346;28;20560;-75
2022/10/20 00:40:42;;;;;;;10.30;9.40;;;;;;;11.03;100.00;100428.59;5066312;28;20292;-74
2022/10/20 00:43:15;;;;;;;10.40;9.50;;;;;;;11.06;100.00;100423.38;5073541;28;20188;-75
2022/10/20 00:45:41;;;;;;;10.10;9.20;;;;;;;11.07;100.00;100424.25;5075685;28;20263;-74
2022/10/20 00:48:18;;;;;;;10.00;9.10;;;;;;;11.07;100.00;100421.66;5069553;28;20200;-74
2022/10/20 00:50:52;;;;;;;10.17;9.30;;;;;;;11.06;100.00;100417.34;5072605;28;20301;-74
2022/10/20 00:53:20;;;;;;;10.43;9.53;;;;;;;11.04;100.00;100419.94;5070892;28;20188;-75
2022/10/20 00:55:49;;;;;;;10.10;9.13;;;;;;;11.03;100.00;100415.66;5071348;28;20194;-75
2022/10/20 00:58:14;;;;;;;10.10;9.20;;;;;;;11.02;100.00;100411.34;5079468;28;20189;-75
2022/10/20 01:00:42;;;;;;;9.43;8.63;;;;;;;11.03;100.00;100412.19;5075429;28;20502;-75
2022/10/20 01:03:13;;;;;;;10.03;8.97;;;;;;;11.03;100.00;100404.41;5072078;28;20684;-75
2022/10/20 01:05:39;;;;;;;10.67;9.77;;;;;;;11.00;100.00;100389.78;5080730;28;20200;-75
2022/10/20 01:08:04;;;;;;;10.27;9.27;;;;;;;10.98;100.00;100394.13;5080715;28;20198;-75
2022/10/20 01:10:38;;;;;;;10.13;9.23;;;;;;;10.98;100.00;100388.94;5071326;28;20216;-75
2022/10/20 01:13:18;;;;;;;10.03;9.00;;;;;;;10.95;100.00;100387.25;5079778;28;20668;-74
2022/10/20 01:16:00;;;;;;;9.40;8.60;;;;;;;10.93;100.00;100381.22;5073383;28;20193;-75
2022/10/20 01:18:40;;;;;;;9.90;9.10;;;;;;;10.91;100.00;100376.91;5073873;28;20186;-75
2022/10/20 01:21:30;;;;;;;9.70;9.00;;;;;;;10.88;100.00;100377.78;5078781;28;20276;-75
2022/10/20 01:24:35;;;;;;;9.53;8.63;;;;;;;10.87;100.00;100370.06;5077055;28;20185;-75
2022/10/20 01:27:26;;;;;;;9.53;8.83;;;;;;;10.85;100.00;100377.81;5061910;28;20215;-75
2022/10/20 01:30:12;;;;;;;10.57;9.57;;;;;;;10.80;100.00;100369.25;5071138;28;20202;-75
2022/10/20 01:32:40;;;;;;;10.30;9.17;;;;;;;10.77;100.00;100358.91;5072990;28;20229;-75
2022/10/20 01:35:29;;;;;;;9.27;8.57;;;;;;;10.76;100.00;100370.13;5079804;28;20653;-75
2022/10/20 01:38:17;;;;;;;9.53;8.73;;;;;;;10.74;100.00;100352.00;5076593;28;20585;-76
2022/10/20 01:40:54;;;;;;;9.67;8.80;;;;;;;10.72;100.00;100360.66;5067469;28;20217;-75
2022/10/20 01:43:24;;;;;;;9.73;8.83;;;;;;;10.71;100.00;100357.25;5080224;28;20184;-75
2022/10/20 01:45:51;;;;;;;9.37;8.63;;;;;;;10.69;100.00;100361.56;5072129;28;20274;-75
2022/10/20 01:48:21;;;;;;;8.93;8.23;;;;;;;10.68;100.00;100358.09;5070819;28;20264;-75
2022/10/20 01:50:48;;;;;;;9.43;8.67;;;;;;;10.68;100.00;100359.84;5076639;28;20217;-75
2022/10/20 01:53:14;;;;;;;9.07;8.37;;;;;;;10.65;100.00;100360.75;5074873;28;20303;-75
2022/10/20 01:55:39;;;;;;;8.43;7.67;;;;;;;10.64;100.00;100353.84;5075160;28;20882;-75
2022/10/20 01:58:29;;;;;;;7.73;7.13;;;;;;;10.65;100.00;100358.16;5079181;28;20191;-75
2022/10/20 02:01:01;;;;;;;7.90;7.30;;;;;;;10.65;100.00;100357.28;5073529;28;20224;-75
2022/10/20 02:03:42;;;;;;;7.87;7.27;;;;;;;10.65;100.00;100346.94;5074912;28;20231;-75
2022/10/20 02:06:18;;;;;;;7.73;7.03;;;;;;;10.64;100.00;100346.09;5075389;28;20207;-75
2022/10/20 02:08:48;;;;;;;9.07;8.37;;;;;;;10.65;100.00;100352.97;5077776;28;20190;-75
2022/10/20 02:11:24;;;;;;;7.80;7.20;;;;;;;10.67;100.00;100352.94;5075560;28;20214;-76
2022/10/20 02:13:51;;;;;;;7.87;7.20;;;;;;;10.69;100.00;100358.97;5079434;28;20255;-75
2022/10/20 02:16:39;;;;;;;8.83;8.03;;;;;;;10.70;100.00;100360.69;5076152;28;20196;-75
2022/10/20 02:19:06;;;;;;;9.63;8.83;;;;;;;10.70;100.00;100350.34;5068754;28;20190;-75
2022/10/20 02:21:32;;;;;;;8.57;7.77;;;;;;;10.71;100.00;100341.72;5078302;28;20209;-75
2022/10/20 02:24:02;;;;;;;9.13;8.37;;;;;;;10.73;100.00;100341.69;5072288;28;20397;-75
2022/10/20 02:26:29;;;;;;;10.30;9.30;;;;;;;10.72;100.00;100337.38;5081260;28;20181;-75
2022/10/20 02:28:59;;;;;;;9.50;8.70;;;;;;;10.71;100.00;100336.53;5070805;28;20189;-75
2022/10/20 02:31:25;;;;;;;9.97;9.10;;;;;;;10.71;100.00;100343.41;5070931;28;20212;-75
2022/10/20 02:33:51;;;;;;;8.80;8.17;;;;;;;10.71;100.00;100344.28;5076742;28;20197;-75
2022/10/20 02:36:19;;;;;;;9.40;8.60;;;;;;;10.73;100.00;100346.88;5074789;28;20263;-75
2022/10/20 02:38:45;;;;;;;9.00;8.30;;;;;;;10.72;100.00;100338.25;5067460;28;20221;-75
2022/10/20 02:41:11;;;;;;;8.97;8.20;;;;;;;10.73;100.00;100339.09;5074174;28;20214;-75
2022/10/20 02:43:36;;;;;;;9.00;8.30;;;;;;;10.73;100.00;100329.63;5073934;28;20591;-75
2022/10/20 02:46:02;;;;;;;9.00;8.20;;;;;;;10.75;100.00;100340.78;5072083;28;20192;-75
2022/10/20 02:48:27;;;;;;;9.00;8.20;;;;;;;10.77;100.00;100354.59;5075727;28;20201;-75
2022/10/20 02:50:52;;;;;;;9.27;8.57;;;;;;;10.77;100.00;100349.41;5074071;28;20217;-75
2022/10/20 02:53:18;;;;;;;9.03;8.33;;;;;;;10.78;100.00;100338.19;5077822;28;21044;-76
2022/10/20 02:55:43;;;;;;;9.97;9.17;;;;;;;10.79;100.00;100341.63;5068299;28;20281;-74
2022/10/20 02:58:09;;;;;;;9.27;8.47;;;;;;;10.79;100.00;100346.81;5077884;28;20193;-74
2022/10/20 03:00:34;;;;;;;8.47;7.77;;;;;;;10.77;100.00;100349.41;5074389;28;20231;-74
2022/10/20 03:02:59;;;;;;;9.73;8.77;;;;;;;10.77;100.00;100349.41;5075337;28;20197;-75
2022/10/20 03:05:25;;;;;;;8.90;8.20;;;;;;;10.77;100.00;100344.22;5066608;28;20260;-75
2022/10/20 03:07:51;;;;;;;8.60;7.90;;;;;;;10.79;100.00;100344.22;5072136;28;20198;-74
2022/10/20 03:10:17;;;;;;;9.23;8.43;;;;;;;10.79;100.00;100347.66;5077807;28;20240;-74
2022/10/20 03:12:42;;;;;;;10.50;9.60;;;;;;;10.80;100.00;100344.19;5073398;28;20661;-74
2022/10/20 03:15:07;;;;;;;9.47;8.67;;;;;;;10.81;100.00;100347.66;5071664;28;20210;-74
2022/10/20 03:17:33;;;;;;;11.40;10.30;;;;;;;10.81;100.00;100353.69;5073361;28;20204;-74
2022/10/20 03:19:58;;;;;;;11.27;10.27;;;;;;;10.80;100.00;100351.97;5072982;28;20196;-74
2022/10/20 03:22:23;;;;;;;11.40;10.40;;;;;;;10.81;100.00;100355.44;5072686;28;20209;-73
2022/10/20 03:24:49;;;;;;;13.23;11.97;;;;;;;10.82;100.00;100357.13;5073873;28;20193;-74
2022/10/20 03:27:14;;;;;;;12.20;11.10;;;;;;;10.81;100.00;100347.66;5076638;28;20658;-75
2022/10/20 03:29:39;;;;;;;12.17;10.97;;;;;;;10.81;100.00;100353.69;5070440;28;20389;-74
2022/10/20 03:32:05;;;;;;;12.43;11.17;;;;;;;10.81;100.00;100352.84;5067673;28;20274;-74
2022/10/20 03:34:30;;;;;;;13.10;11.90;;;;;;;10.82;100.00;100344.19;5066645;28;20562;-74
2022/10/20 03:36:55;;;;;;;14.60;12.50;;;;;;;10.83;100.00;100338.13;5075261;28;20279;-74
2022/10/20 03:39:20;;;;;;;12.27;11.27;;;;;;;10.84;100.00;100334.66;5067508;28;20198;-72
2022/10/20 03:41:46;;;;;;;13.10;11.80;;;;;;;10.86;100.00;100343.28;5073984;28;20211;-74
2022/10/20 03:44:11;;;;;;;12.33;11.23;;;;;;;10.86;100.00;100340.69;5072184;28;20196;-74
2022/10/20 03:46:36;;;;;;;12.83;11.70;;;;;;;10.89;100.00;100326.88;5070761;28;20193;-73
2022/10/20 03:49:02;;;;;;;12.53;11.50;;;;;;;10.91;100.00;100319.94;5075121;28;20189;-73
2022/10/20 03:51:27;;;;;;;12.37;11.27;;;;;;;10.92;100.00;100309.59;5069624;28;21266;-75
2022/10/20 03:53:53;;;;;;;12.23;11.13;;;;;;;10.94;100.00;100305.25;5070645;28;20285;-76
2022/10/20 03:56:20;;;;;;;12.03;10.97;;;;;;;10.97;100.00;100299.16;5067807;28;20186;-75
2022/10/20 03:58:45;;;;;;;12.57;11.23;;;;;;;10.98;100.00;100287.94;5066929;28;20225;-74
2022/10/20 04:01:14;;;;;;;11.93;10.83;;;;;;;11.01;100.00;100300.00;5077078;28;20334;-74
2022/10/20 04:03:39;;;;;;;12.30;11.10;;;;;;;11.02;100.00;100296.53;5070561;28;20305;-74
2022/10/20 04:06:05;;;;;;;12.13;11.03;;;;;;;11.02;100.00;100292.22;5064210;28;20284;-74
2022/10/20 04:08:30;;;;;;;12.17;11.17;;;;;;;11.03;100.00;100295.66;5078985;28;20189;-74
2022/10/20 04:10:57;;;;;;;11.77;10.77;;;;;;;11.02;100.00;100302.59;5066679;28;20239;-74
2022/10/20 04:13:22;;;;;;;12.70;11.70;;;;;;;11.03;100.00;100299.13;5072007;28;20189;-74
2022/10/20 04:15:47;;;;;;;12.57;11.37;;;;;;;11.05;100.00;100291.31;5065252;28;20210;-74
2022/10/20 04:18:13;;;;;;;12.63;11.53;;;;;;;11.03;100.00;100296.53;5066802;28;20267;-74
2022/10/20 04:20:38;;;;;;;11.60;10.50;;;;;;;11.03;100.00;100309.47;5073115;28;20253;-74
2022/10/20 04:23:03;;;;;;;11.00;10.07;;;;;;;10.98;100.00;100299.16;5076624;28;20192;-74
2022/10/20 04:25:29;;;;;;;10.13;9.23;;;;;;;10.96;100.00;100294.88;5068392;28;20725;-74
2022/10/20 04:27:54;;;;;;;9.57;8.77;;;;;;;10.93;100.00;100297.47;5080209;28;20189;-74
2022/10/20 04:30:19;;;;;;;9.47;8.53;;;;;;;10.89;100.00;100301.00;5081184;28;20204;-74
2022/10/20 04:32:44;;;;;;;11.20;10.27;;;;;;;10.86;100.00;100298.44;5079452;28;20231;-74
2022/10/20 04:35:11;;;;;;;13.03;11.83;;;;;;;10.83;100.00;100299.28;5072860;28;20610;-74
2022/10/20 04:37:36;;;;;;;14.17;12.97;;;;;;;10.81;100.00;100291.56;5083863;28;20706;-74
2022/10/20 04:40:02;;;;;;;15.67;14.17;;;;;;;10.78;100.00;100285.56;5072958;28;20245;-74
2022/10/20 04:42:27;;;;;;;14.03;12.67;;;;;;;10.77;100.00;100283.84;5077973;28;20201;-74
2022/10/20 04:44:52;;;;;;;13.83;12.53;;;;;;;10.75;100.00;100283.84;5079749;28;20215;-74
2022/10/20 04:47:18;;;;;;;14.00;12.80;;;;;;;10.74;100.00;100289.88;5084818;28;20185;-74
2022/10/20 04:49:43;;;;;;;12.67;11.47;;;;;;;10.76;100.00;100285.56;5081526;28;20189;-73
2022/10/20 04:52:08;;;;;;;14.37;13.03;;;;;;;10.76;100.00;100280.38;5080755;28;20681;-74
2022/10/20 04:54:34;;;;;;;13.03;11.93;;;;;;;10.76;100.00;100280.38;5083679;28;20362;-74
2022/10/20 04:56:59;;;;;;;12.90;11.80;;;;;;;10.79;100.00;100270.00;5076335;28;20189;-75
2022/10/20 04:59:24;;;;;;;13.20;12.03;;;;;;;10.80;100.00;100271.72;5077545;28;20221;-74
2022/10/20 05:01:50;;;;;;;13.17;12.07;;;;;;;10.81;100.00;100263.09;5080550;28;20212;-74
2022/10/20 05:04:20;;;;;;;13.10;12.00;;;;;;;10.83;100.00;100256.16;5063042;28;20295;-74
2022/10/20 05:06:47;;;;;;;12.03;10.93;;;;;;;10.87;100.00;100256.13;5081240;28;20300;-74
2022/10/20 05:09:13;;;;;;;12.37;11.27;;;;;;;10.90;100.00;100250.91;5088465;28;20177;-75
2022/10/20 05:11:38;;;;;;;12.43;11.33;;;;;;;10.91;100.00;100243.13;5081132;28;20221;-75
2022/10/20 05:14:03;;;;;;;13.80;12.43;;;;;;;10.94;100.00;100239.66;5079001;28;20276;-74
2022/10/20 05:16:29;;;;;;;14.23;12.93;;;;;;;10.96;100.00;100233.59;5079303;28;20186;-74
2022/10/20 05:18:56;;;;;;;13.33;12.13;;;;;;;10.99;100.00;100230.09;5084119;28;20181;-74
2022/10/20 05:21:24;;;;;;;13.63;12.00;;;;;;;11.02;100.00;100224.88;5081538;28;20213;-75
2022/10/20 05:24:01;;;;;;;16.00;13.43;;;;;;;11.04;100.00;100236.06;5085756;28;20198;-74
2022/10/20 05:26:31;;;;;;;13.77;12.57;;;;;;;11.07;100.00;100230.00;5079785;28;20852;-74
2022/10/20 05:28:56;;;;;;;14.63;13.33;;;;;;;11.10;100.00;100224.81;5072551;28;20213;-75
2022/10/20 05:31:22;;;;;;;13.87;12.67;;;;;;;11.12;100.00;100231.66;5078638;28;20313;-74
2022/10/20 05:33:50;;;;;;;14.83;13.33;;;;;;;11.16;100.00;100247.19;5077705;28;20227;-74
2022/10/20 05:36:18;;;;;;;14.70;13.40;;;;;;;11.19;100.00;100241.97;5084155;28;20181;-74
2022/10/20 05:38:43;;;;;;;13.47;12.33;;;;;;;11.21;100.00;100241.06;5079050;28;20190;-74
2022/10/20 05:41:15;;;;;;;14.00;12.23;;;;;;;11.18;100.00;100241.09;5082112;28;20631;-73
2022/10/20 05:43:40;;;;;;;11.37;10.27;;;;;;;11.10;100.00;100238.59;5089769;28;20354;-74
2022/10/20 05:46:07;;;;;;;11.17;10.17;;;;;;;11.04;100.00;100248.16;5077433;28;20196;-74
2022/10/20 05:48:32;;;;;;;10.53;9.53;;;;;;;10.98;100.00;100249.94;5080277;28;20271;-74
2022/10/20 05:51:11;;;;;;;9.87;9.07;;;;;;;10.95;100.00;100254.31;5082278;28;20592;-73
2022/10/20 05:53:38;;;;;;;9.70;8.90;;;;;;;10.89;100.00;100265.59;5080387;28;20274;-74
2022/10/20 05:56:05;;;;;;;9.77;8.83;;;;;;;10.83;100.00;100269.09;5078846;28;20185;-73
2022/10/20 05:58:31;;;;;;;10.87;9.87;;;;;;;10.78;100.00;100268.28;5083498;28;20194;-74
2022/10/20 06:01:24;;;;;;;10.67;9.70;;;;;;;10.74;100.00;100276.09;5081296;28;20901;-74
2022/10/20 06:03:54;;;;;;;11.20;10.20;;;;;;;10.69;100.00;100278.75;5083366;28;20212;-74
2022/10/20 06:06:23;;;;;;;10.43;9.50;;;;;;;10.68;100.00;100274.44;5078443;28;20182;-73
2022/10/20 06:08:49;;;;;;;11.10;10.10;;;;;;;10.67;100.00;100273.56;5083064;28;20194;-74
2022/10/20 06:11:15;;;;;;;10.57;9.50;;;;;;;10.68;100.00;100277.03;5078301;28;20213;-74
2022/10/20 06:13:41;;;;;;;11.03;10.03;;;;;;;10.70;100.00;100277.88;5083917;28;20255;-74
2022/10/20 06:16:09;;;;;;;11.37;10.27;;;;;;;10.74;100.00;100281.28;5076180;28;20198;-74
2022/10/20 06:18:37;;;;;;;11.80;10.70;;;;;;;10.77;100.00;100284.69;5079891;28;20192;-74
2022/10/20 06:21:09;;;;;;;12.63;11.47;;;;;;;10.79;100.00;100293.31;5076033;28;20226;-74
2022/10/20 06:23:34;;;;;;;11.90;10.90;;;;;;;10.84;100.00;100282.91;5084895;28;20287;-74
2022/10/20 06:26:08;;;;;;;12.37;11.00;;;;;;;10.92;100.00;100291.47;5078845;28;20302;-74
2022/10/20 06:28:35;;;;;;;11.30;10.30;;;;;;;10.98;100.00;100281.00;5073114;28;20232;-73
2022/10/20 06:31:30;;;;;;;11.80;10.70;;;;;;;11.08;100.00;100275.75;5084458;28;20560;-73
2022/10/20 06:33:56;;;;;;;12.33;11.33;;;;;;;11.15;100.00;100274.78;5074291;28;20652;-74
2022/10/20 06:36:23;;;;;;;12.07;10.77;;;;;;;11.21;100.00;100274.72;5078442;28;20185;-74
2022/10/20 06:38:52;;;;;;;11.63;10.63;;;;;;;11.29;100.00;100293.63;5079701;28;20186;-73
2022/10/20 06:41:18;;;;;;;11.57;10.47;;;;;;;11.37;100.00;100300.47;5081967;28;20206;-74
2022/10/20 06:43:44;;;;;;;11.47;10.53;;;;;;;11.44;100.00;100299.50;5078970;28;20193;-74
2022/10/20 06:46:11;;;;;;;11.83;10.63;;;;;;;11.53;100.00;100311.47;5076559;28;20185;-74
2022/10/20 06:48:37;;;;;;;11.00;10.10;;;;;;;11.61;100.00;100312.25;5075783;28;20207;-74
2022/10/20 06:51:04;;;;;;;11.30;10.20;;;;;;;11.68;100.00;100306.09;5084694;28;20209;-73
2022/10/20 06:53:32;;;;;;;10.63;9.53;;;;;;;11.76;100.00;100298.22;5075803;28;20271;-72
2022/10/20 06:56:05;;;;;;;10.50;9.60;;;;;;;11.82;100.00;100303.34;5079977;28;20622;-74
2022/10/20 06:58:31;;;;;;;10.67;9.67;;;;;;;11.86;100.00;100309.31;5083642;28;20579;-74
2022/10/20 07:01:02;;;;;;;9.37;8.60;;;;;;;11.93;100.00;100312.69;5084917;28;20264;-74
2022/10/20 07:03:28;;;;;;;9.37;8.57;;;;;;;11.98;100.00;100308.31;5076912;28;20537;-74
2022/10/20 07:05:55;;;;;;;9.83;8.83;;;;;;;12.05;100.00;100307.34;5082052;28;20205;-74
2022/10/20 07:08:21;;;;;;;9.80;8.80;;;;;;;12.10;100.00;100291.75;5082161;28;20227;-72
2022/10/20 07:10:46;;;;;;;9.27;8.43;;;;;;;12.15;100.00;100295.97;5084510;28;20221;-74
2022/10/20 07:13:11;;;;;;;8.90;8.17;;;;;;;12.24;100.00;100287.19;5083049;28;20195;-74
2022/10/20 07:15:37;;;;;;;10.27;9.37;;;;;;;12.30;100.00;100287.06;5084284;28;20194;-74
2022/10/20 07:18:02;;;;;;;10.80;9.80;;;;;;;12.37;100.00;100292.19;5079449;28;20280;-72
2022/10/20 07:20:27;;;;;;;10.30;9.40;;;;;;;12.44;100.00;100286.88;5081361;28;20667;-74
2022/10/20 07:22:53;;;;;;;10.10;9.17;;;;;;;12.49;100.00;100287.63;5081449;28;20206;-74
2022/10/20 07:25:20;;;;;;;10.50;9.60;;;;;;;12.54;100.00;100279.78;5082996;28;20202;-74
2022/10/20 07:27:46;;;;;;;10.67;9.73;;;;;;;12.61;100.00;100293.50;5075350;28;20199;-74
2022/10/20 07:30:11;;;;;;;10.70;9.67;;;;;;;12.67;100.00;100295.13;5084137;28;20206;-74
2022/10/20 07:32:36;;;;;;;10.13;9.17;;;;;;;12.72;100.00;100294.16;5076852;28;20218;-74
2022/10/20 07:35:02;;;;;;;10.20;9.30;;;;;;;12.76;100.00;100292.38;5074542;28;20679;-74
2022/10/20 07:37:27;;;;;;;10.80;9.67;;;;;;;12.83;100.00;100290.50;5069811;28;20196;-73
2022/10/20 07:39:52;;;;;;;10.80;9.73;;;;;;;12.88;100.00;100291.31;5071279;28;20568;-74
2022/10/20 07:42:17;;;;;;;11.17;10.17;;;;;;;12.94;100.00;100305.03;5081675;28;20210;-74
2022/10/20 07:44:43;;;;;;;10.73;9.83;;;;;;;13.02;100.00;100312.69;5070971;28;20195;-74
2022/10/20 07:47:08;;;;;;;10.40;9.50;;;;;;;13.11;100.00;100319.44;5078969;28;20197;-74
2022/10/20 07:49:33;;;;;;;11.67;10.60;;;;;;;13.14;100.00;100290.81;5075319;28;20583;-74
2022/10/20 07:51:59;;;;;;;13.17;11.83;;;;;;;13.11;100.00;100289.09;5081719;28;20977;-74
2022/10/20 07:54:24;;;;;;;13.57;12.23;;;;;;;13.08;100.00;100290.91;5080381;28;20212;-74
2022/10/20 07:56:49;;;;;;;12.87;11.63;;;;;;;13.12;100.00;100302.97;5082191;28;20194;-74
2022/10/20 07:59:15;;;;;;;12.97;11.87;;;;;;;13.17;100.00;100292.47;5081144;28;20860;-74
2022/10/20 08:01:41;;;;;;;13.30;12.00;;;;;;;13.17;100.00;100295.09;5072558;28;20204;-74
2022/10/20 08:04:06;;;;;;;14.00;12.70;;;;;;;13.22;100.00;100303.66;5081827;28;20192;-73
2022/10/20 08:06:32;;;;;;;13.30;12.10;;;;;;;13.21;100.00;100300.19;5077000;28;20197;-74
2022/10/20 08:08:57;;;;;;;13.87;12.57;;;;;;;13.18;100.00;100302.00;5076196;28;20187;-74
2022/10/20 08:11:22;;;;;;;13.60;12.30;;;;;;;13.14;100.00;100305.53;5082702;28;20750;-74
2022/10/20 08:13:48;;;;;;;13.83;12.57;;;;;;;13.12;100.00;100308.16;5082760;28;20199;-74
2022/10/20 08:16:14;;;;;;;12.47;11.40;;;;;;;13.11;100.00;100306.47;5084900;28;20659;-74
2022/10/20 08:18:41;;;;;;;12.80;11.70;;;;;;;13.16;100.00;100312.41;5082316;28;20645;-74
2022/10/20 08:21:15;;;;;;;12.00;11.00;;;;;;;13.21;100.00;100328.78;5086730;28;20212;-74
2022/10/20 08:23:42;;;;;;;12.30;11.10;;;;;;;13.24;100.00;100312.25;5080658;28;21152;-74
2022/10/20 08:26:08;;;;;;;11.63;10.60;;;;;;;13.29;100.00;100325.19;5084216;28;20315;-74
2022/10/20 08:28:33;;;;;;;11.47;10.37;;;;;;;13.32;100.00;100328.56;5081318;28;20207;-75
2022/10/20 08:31:01;;;;;;;12.80;11.63;;;;;;;13.37;100.00;100344.94;5077585;28;20222;-74
2022/10/20 08:33:27;;;;;;;12.83;11.53;;;;;;;13.44;100.00;100363.03;5084637;28;20199;-74
2022/10/20 08:35:52;;;;;;;13.77;12.47;;;;;;;13.54;100.00;100378.44;5080406;28;20196;-74
2022/10/20 08:38:17;;;;;;;13.20;12.00;;;;;;;13.62;100.00;100369.59;5087228;28;20663;-74
2022/10/20 08:40:43;;;;;;;12.77;11.40;;;;;;;13.72;100.00;100368.53;5087548;28;20223;-75
2022/10/20 08:43:17;;;;;;;12.47;11.37;;;;;;;13.90;100.00;100376.84;5084481;28;20178;-74
2022/10/20 08:45:42;;;;;;;12.70;11.50;;;;;;;14.05;100.00;100366.13;5082657;28;20652;-74
2022/10/20 08:48:16;;;;;;;11.67;10.67;;;;;;;14.21;100.00;100373.56;5085256;28;20187;-74
2022/10/20 08:50:44;;;;;;;10.67;9.80;;;;;;;14.34;100.00;100369.78;5082994;28;20216;-75
2022/10/20 08:53:11;;;;;;;11.73;10.60;;;;;;;14.45;100.00;100372.13;5083408;28;20670;-74
2022/10/20 08:55:37;;;;;;;10.73;9.73;;;;;;;14.57;100.00;100373.59;5084661;28;20666;-75
2022/10/20 08:58:03;;;;;;;10.17;9.23;;;;;;;14.62;100.00;100367.38;5082443;28;20242;-75
2022/10/20 09:00:30;;;;;;;10.30;9.40;;;;;;;14.67;100.00;100375.06;5080858;28;20250;-74
2022/10/20 09:03:01;;;;;;;11.10;10.13;;;;;;;14.70;100.00;100366.38;5083431;28;20731;-74
2022/10/20 09:05:30;;;;;;;11.10;10.10;;;;;;;14.70;100.00;100369.81;5079286;28;20197;-73
2022/10/20 09:07:56;;;;;;;11.60;10.60;;;;;;;14.72;100.00;100368.03;5081695;28;20181;-75
2022/10/20 09:10:35;;;;;;;10.83;9.93;;;;;;;14.73;100.00;100350.69;5082925;28;20298;-73
2022/10/20 09:13:15;;;;;;;10.80;9.80;;;;;;;14.78;100.00;100354.00;5079920;28;20582;-74
2022/10/20 09:15:41;;;;;;;9.40;8.60;;;;;;;14.86;100.00;100352.06;5075542;28;20198;-75
2022/10/20 09:18:12;;;;;;;11.77;10.67;;;;;;;14.91;100.00;100360.59;5082356;28;20242;-74
2022/10/20 09:20:50;;;;;;;11.60;10.60;;;;;;;14.91;100.00;100346.72;5072901;28;20210;-74
2022/10/20 09:23:18;;;;;;;11.30;10.33;;;;;;;14.93;100.00;100352.75;5079303;28;20706;-74
2022/10/20 09:25:44;;;;;;;11.40;10.30;;;;;;;14.98;100.00;100345.66;5074570;28;20186;-75
2022/10/20 09:28:21;;;;;;;10.50;9.60;;;;;;;15.05;100.00;100346.38;5082793;28;20192;-73
2022/10/20 09:30:47;;;;;;;10.40;9.30;;;;;;;15.13;100.00;100346.16;5078451;28;20582;-75
2022/10/20 09:33:24;;;;;;;10.97;9.97;;;;;;;15.23;100.00;100339.81;5078799;28;20185;-74
2022/10/20 09:35:50;;;;;;;10.40;9.50;;;;;;;15.33;100.00;100341.25;5071287;28;20185;-74
2022/10/20 09:38:18;;;;;;;10.47;9.57;;;;;;;15.41;100.00;100340.19;5083820;28;20218;-74
2022/10/20 09:40:54;;;;;;;10.57;9.57;;;;;;;15.52;100.00;100341.56;5085467;28;20225;-74
2022/10/20 09:43:19;;;;;;;11.00;10.00;;;;;;;15.59;100.00;100339.66;5084963;28;20267;-74
2022/10/20 09:45:54;;;;;;;10.37;9.47;;;;;;;15.68;100.00;100349.84;5081819;28;20556;-73
2022/10/20 09:48:24;;;;;;;9.83;9.00;;;;;;;15.81;100.00;100346.84;5077130;28;20192;-74
2022/10/20 09:50:55;;;;;;;9.47;8.67;;;;;;;15.98;100.00;100346.38;5082222;28;20218;-74
2022/10/20 09:53:26;;;;;;;10.63;9.53;;;;;;;16.07;100.00;100343.50;5084126;28;20213;-72
2022/10/20 09:55:51;;;;;;;9.77;8.93;;;;;;;16.10;100.00;100337.31;5085334;28;20251;-74
2022/10/20 09:58:26;;;;;;;9.17;8.27;;;;;;;16.15;100.00;100345.88;5086693;28;20177;-75
2022/10/20 10:01:03;;;;;;;10.10;9.20;;;;;;;16.18;100.00;100332.72;5084318;28;20221;-75
2022/10/20 10:03:43;;;;;;;10.63;9.63;;;;;;;16.14;100.00;100337.16;5083225;28;20817;-74
2022/10/20 10:06:29;;;;;;;11.27;10.23;;;;;;;16.09;100.00;100328.66;5070869;28;20182;-74
2022/10/20 10:08:56;;;;;;;10.80;9.63;;;;;;;16.09;100.00;100328.66;5085196;28;20194;-75
2022/10/20 10:11:28;;;;;;;9.13;8.27;;;;;;;16.17;100.00;100323.19;5079873;28;20225;-75
2022/10/20 10:13:53;;;;;;;9.03;8.23;;;;;;;16.24;100.00;100316.00;5083956;28;20213;-75
2022/10/20 10:16:20;;;;;;;9.90;9.00;;;;;;;16.23;100.00;100309.06;5077939;28;20280;-75
2022/10/20 10:19:01;;;;;;;9.30;8.60;;;;;;;16.13;100.00;100291.06;5077550;28;20197;-75
2022/10/20 10:21:29;;;;;;;10.77;9.77;;;;;;;15.96;100.00;100270.75;5078988;28;20284;-74
2022/10/20 10:24:03;;;;;;;12.63;11.43;;;;;;;15.69;100.00;100275.88;5071836;28;20635;-75
2022/10/20 10:26:55;;;;;;;12.60;11.30;;;;;;;15.46;100.00;100299.16;5080672;28;20181;-75
2022/10/20 10:29:26;;;;;;;13.13;11.83;;;;;;;15.27;100.00;100324.94;5083110;28;20424;-73
2022/10/20 10:32:13;;;;;;;11.10;10.20;;;;;;;15.15;100.00;100346.97;5080713;28;20227;-75
2022/10/20 10:35:15;;;;;;;11.17;10.17;;;;;;;15.09;100.00;100333.22;5073352;28;20657;-74
2022/10/20 10:37:43;;;;;;;11.20;10.10;;;;;;;15.05;100.00;100331.59;5075287;28;20763;-75
2022/10/20 10:40:17;;;;;;;12.03;10.90;;;;;;;15.07;100.00;100327.19;5069917;28;20224;-74
2022/10/20 10:43:07;;;;;;;10.77;9.77;;;;;;;15.15;100.00;100319.16;5071744;28;20199;-74
2022/10/20 10:45:47;;;;;;;10.07;9.17;;;;;;;15.31;100.00;100319.56;5066675;28;20259;-74
2022/10/20 10:48:57;;;;;;;13.40;12.00;;;;;;;15.48;100.00;100300.00;5063181;28;20181;-74
2022/10/20 10:51:41;;;;;;;11.23;10.13;;;;;;;15.62;100.00;100294.38;5073044;28;20235;-74
2022/10/20 10:54:34;;;;;;;9.13;8.33;;;;;;;15.77;100.00;100283.47;5069790;28;20194;-73
2022/10/20 10:57:09;;;;;;;9.20;8.33;;;;;;;15.97;100.00;100287.22;5068433;28;20181;-73
2022/10/20 10:59:38;;;;;;;14.90;11.47;;;;;;;16.04;100.00;100270.50;5068675;28;20189;-73
2022/10/20 11:02:18;;;;;;;11.27;10.27;;;;;;;15.92;100.00;100276.94;5071110;28;20951;-73
2022/10/20 11:05:11;;;;;;;11.17;10.07;;;;;;;15.74;100.00;100273.13;5078207;28;20185;-73
2022/10/20 11:07:55;;;;;;;10.77;9.87;;;;;;;15.64;100.00;100282.16;5079268;28;20258;-74
2022/10/20 11:10:30;;;;;;;11.37;10.27;;;;;;;15.63;100.00;100263.00;5082039;28;20203;-72
2022/10/20 11:13:07;;;;;;;11.10;10.10;;;;;;;15.61;100.00;100256.16;5084476;28;20193;-74
2022/10/20 11:15:45;;;;;;;11.87;10.87;;;;;;;15.62;100.00;100263.06;5077034;28;20691;-74
2022/10/20 11:18:41;;;;;;;10.93;9.50;;;;;;;15.67;100.00;100284.63;5079471;28;20189;-74